sensor_id;sensor_type;location;lat;lon;timestamp;P1;durP1;ratioP1;P2;durP2;ratioP2
14015;SDS011;7083;48.854;9.158;2023-12-22T00:01:23;5.70;;;1.90;;
14015;SDS011;7083;48.854;9.158;2023-12-22T00:03:50;2.07;;;1.93;;
14015;SDS011;7083;48.854;9.158;2023-12-22T00:06:18;4.77;;;1.60;;
14015;SDS011;7083;48.854;9.158;2023-12-22T00:08:44;4.93;;;1.73;;
14015;SDS011;7083;48.854;9.158;2023-12-22T00:11:11;7.55;;;2.50;;
14015;SDS011;7083;48.854;9.158;2023-12-22T00:13:41;5.33;;;1.50;;
14015;SDS011;7083;48.854;9.158;2023-12-22T00:16:07;3.60;;;1.70;;
14015;SDS011;7083;48.854;9.158;2023-12-22T00:18:36;5.53;;;1.80;;
14015;SDS011;7083;48.854;9.158;2023-12-22T00:21:03;5.50;;;1.70;;
14015;SDS011;7083;48.854;9.158;2023-12-22T00:23:31;3.97;;;1.97;;
14015;SDS011;7083;48.854;9.158;2023-12-22T00:26:00;6.03;;;2.40;;
14015;SDS011;7083;48.854;9.158;2023-12-22T00:28:27;8.90;;;3.00;;
14015;SDS011;7083;48.854;9.158;2023-12-22T00:30:54;2.03;;;1.87;;
14015;SDS011;7083;48.854;9.158;2023-12-22T00:33:24;2.83;;;1.90;;
14015;SDS011;7083;48.854;9.158;2023-12-22T00:35:51;6.80;;;3.33;;
14015;SDS011;7083;48.854;9.158;2023-12-22T00:38:25;4.33;;;1.70;;
14015;SDS011;7083;48.854;9.158;2023-12-22T00:40:53;5.57;;;2.93;;
14015;SDS011;7083;48.854;9.158;2023-12-22T00:43:20;5.90;;;2.10;;
14015;SDS011;7083;48.854;9.158;2023-12-22T00:45:47;7.80;;;2.30;;
14015;SDS011;7083;48.854;9.158;2023-12-22T00:48:13;5.20;;;2.93;;
14015;SDS011;7083;48.854;9.158;2023-12-22T00:50:41;5.37;;;2.30;;
14015;SDS011;7083;48.854;9.158;2023-12-22T00:53:07;7.43;;;2.60;;
14015;SDS011;7083;48.854;9.158;2023-12-22T00:55:35;8.00;;;2.83;;
14015;SDS011;7083;48.854;9.158;2023-12-22T00:58:03;5.10;;;2.23;;
14015;SDS011;7083;48.854;9.158;2023-12-22T01:00:29;5.53;;;2.00;;
14015;SDS011;7083;48.854;9.158;2023-12-22T01:02:56;4.60;;;2.10;;
14015;SDS011;7083;48.854;9.158;2023-12-22T01:05:23;11.03;;;2.97;;
14015;SDS011;7083;48.854;9.158;2023-12-22T01:07:49;8.40;;;2.70;;
14015;SDS011;7083;48.854;9.158;2023-12-22T01:10:16;4.30;;;2.27;;
14015;SDS011;7083;48.854;9.158;2023-12-22T01:12:43;3.63;;;2.33;;
14015;SDS011;7083;48.854;9.158;2023-12-22T01:15:11;3.20;;;2.53;;
14015;SDS011;7083;48.854;9.158;2023-12-22T01:17:38;4.97;;;1.90;;
14015;SDS011;7083;48.854;9.158;2023-12-22T01:20:04;5.23;;;2.47;;
14015;SDS011;7083;48.854;9.158;2023-12-22T01:22:32;5.27;;;2.00;;
14015;SDS011;7083;48.854;9.158;2023-12-22T01:25:03;4.77;;;2.17;;
14015;SDS011;7083;48.854;9.158;2023-12-22T01:27:30;5.60;;;2.03;;
14015;SDS011;7083;48.854;9.158;2023-12-22T01:29:56;7.40;;;2.70;;
14015;SDS011;7083;48.854;9.158;2023-12-22T01:32:24;2.07;;;1.97;;
14015;SDS011;7083;48.854;9.158;2023-12-22T01:34:51;7.80;;;2.00;;
14015;SDS011;7083;48.854;9.158;2023-12-22T01:37:18;7.47;;;2.33;;
14015;SDS011;7083;48.854;9.158;2023-12-22T01:39:44;4.87;;;2.03;;
14015;SDS011;7083;48.854;9.158;2023-12-22T01:42:11;7.60;;;2.33;;
14015;SDS011;7083;48.854;9.158;2023-12-22T01:44:38;2.83;;;1.67;;
14015;SDS011;7083;48.854;9.158;2023-12-22T01:47:04;7.23;;;2.13;;
14015;SDS011;7083;48.854;9.158;2023-12-22T01:49:32;6.07;;;2.03;;
14015;SDS011;7083;48.854;9.158;2023-12-22T01:51:59;11.47;;;2.23;;
14015;SDS011;7083;48.854;9.158;2023-12-22T01:54:26;3.23;;;1.60;;
14015;SDS011;7083;48.854;9.158;2023-12-22T01:56:53;8.53;;;2.03;;
14015;SDS011;7083;48.854;9.158;2023-12-22T01:59:21;6.00;;;2.10;;
14015;SDS011;7083;48.854;9.158;2023-12-22T02:01:47;3.97;;;1.70;;
14015;SDS011;7083;48.854;9.158;2023-12-22T02:04:14;3.70;;;1.80;;
14015;SDS011;7083;48.854;9.158;2023-12-22T02:06:43;4.00;;;2.00;;
14015;SDS011;7083;48.854;9.158;2023-12-22T02:09:10;6.33;;;1.57;;
14015;SDS011;7083;48.854;9.158;2023-12-22T02:11:37;5.33;;;1.20;;
14015;SDS011;7083;48.854;9.158;2023-12-22T02:14:04;3.97;;;1.57;;
14015;SDS011;7083;48.854;9.158;2023-12-22T02:16:38;1.23;;;0.93;;
14015;SDS011;7083;48.854;9.158;2023-12-22T02:19:10;2.57;;;1.57;;
14015;SDS011;7083;48.854;9.158;2023-12-22T02:22:02;2.03;;;1.30;;
14015;SDS011;7083;48.854;9.158;2023-12-22T02:24:32;1.40;;;1.30;;
14015;SDS011;7083;48.854;9.158;2023-12-22T02:27:00;2.50;;;1.40;;
14015;SDS011;7083;48.854;9.158;2023-12-22T02:29:31;2.67;;;2.10;;
14015;SDS011;7083;48.854;9.158;2023-12-22T02:32:02;4.13;;;1.37;;
14015;SDS011;7083;48.854;9.158;2023-12-22T02:34:33;1.30;;;1.27;;
14015;SDS011;7083;48.854;9.158;2023-12-22T02:37:03;2.63;;;1.30;;
14015;SDS011;7083;48.854;9.158;2023-12-22T02:39:33;2.97;;;1.20;;
14015;SDS011;7083;48.854;9.158;2023-12-22T02:42:01;5.67;;;1.80;;
14015;SDS011;7083;48.854;9.158;2023-12-22T02:44:29;2.30;;;1.60;;
14015;SDS011;7083;48.854;9.158;2023-12-22T02:46:56;3.03;;;1.50;;
14015;SDS011;7083;48.854;9.158;2023-12-22T02:49:23;3.50;;;1.90;;
14015;SDS011;7083;48.854;9.158;2023-12-22T02:51:50;1.53;;;1.40;;
14015;SDS011;7083;48.854;9.158;2023-12-22T02:54:17;2.40;;;1.50;;
14015;SDS011;7083;48.854;9.158;2023-12-22T02:56:46;2.00;;;1.40;;
14015;SDS011;7083;48.854;9.158;2023-12-22T02:59:13;7.20;;;1.80;;
14015;SDS011;7083;48.854;9.158;2023-12-22T03:01:39;4.17;;;2.73;;
14015;SDS011;7083;48.854;9.158;2023-12-22T03:04:06;5.13;;;2.30;;
14015;SDS011;7083;48.854;9.158;2023-12-22T03:06:33;3.67;;;1.80;;
14015;SDS011;7083;48.854;9.158;2023-12-22T03:08:59;5.13;;;1.83;;
14015;SDS011;7083;48.854;9.158;2023-12-22T03:11:26;6.00;;;1.90;;
14015;SDS011;7083;48.854;9.158;2023-12-22T03:13:54;5.83;;;2.20;;
14015;SDS011;7083;48.854;9.158;2023-12-22T03:16:21;5.67;;;2.70;;
14015;SDS011;7083;48.854;9.158;2023-12-22T03:18:47;5.93;;;2.33;;
14015;SDS011;7083;48.854;9.158;2023-12-22T03:21:16;3.80;;;2.20;;
14015;SDS011;7083;48.854;9.158;2023-12-22T03:23:44;6.10;;;2.50;;
14015;SDS011;7083;48.854;9.158;2023-12-22T03:26:10;4.67;;;2.10;;
14015;SDS011;7083;48.854;9.158;2023-12-22T03:28:37;6.57;;;1.40;;
14015;SDS011;7083;48.854;9.158;2023-12-22T03:31:05;6.20;;;2.10;;
14015;SDS011;7083;48.854;9.158;2023-12-22T03:33:32;10.77;;;2.10;;
14015;SDS011;7083;48.854;9.158;2023-12-22T03:35:59;3.83;;;2.23;;
14015;SDS011;7083;48.854;9.158;2023-12-22T03:38:26;3.63;;;1.63;;
14015;SDS011;7083;48.854;9.158;2023-12-22T03:40:52;7.00;;;1.97;;
14015;SDS011;7083;48.854;9.158;2023-12-22T03:43:19;5.00;;;2.00;;
14015;SDS011;7083;48.854;9.158;2023-12-22T03:45:46;4.47;;;2.10;;
14015;SDS011;7083;48.854;9.158;2023-12-22T03:48:14;3.23;;;1.90;;
14015;SDS011;7083;48.854;9.158;2023-12-22T03:50:40;2.23;;;1.23;;
14015;SDS011;7083;48.854;9.158;2023-12-22T03:53:07;4.07;;;2.27;;
14015;SDS011;7083;48.854;9.158;2023-12-22T03:55:34;4.70;;;1.83;;
14015;SDS011;7083;48.854;9.158;2023-12-22T03:58:00;4.10;;;2.23;;
14015;SDS011;7083;48.854;9.158;2023-12-22T04:00:28;5.13;;;2.10;;
14015;SDS011;7083;48.854;9.158;2023-12-22T04:02:55;4.80;;;2.03;;
14015;SDS011;7083;48.854;9.158;2023-12-22T04:05:23;3.63;;;1.73;;
14015;SDS011;7083;48.854;9.158;2023-12-22T04:07:49;4.27;;;2.13;;
14015;SDS011;7083;48.854;9.158;2023-12-22T04:10:16;6.33;;;1.77;;
14015;SDS011;7083;48.854;9.158;2023-12-22T04:12:43;5.67;;;1.97;;
14015;SDS011;7083;48.854;9.158;2023-12-22T04:15:10;7.37;;;2.30;;
14015;SDS011;7083;48.854;9.158;2023-12-22T04:17:37;7.40;;;1.83;;
14015;SDS011;7083;48.854;9.158;2023-12-22T04:20:05;5.03;;;1.93;;
14015;SDS011;7083;48.854;9.158;2023-12-22T04:22:34;9.17;;;3.23;;
14015;SDS011;7083;48.854;9.158;2023-12-22T04:25:00;4.53;;;2.80;;
14015;SDS011;7083;48.854;9.158;2023-12-22T04:27:27;3.50;;;2.87;;
14015;SDS011;7083;48.854;9.158;2023-12-22T04:29:54;4.47;;;1.80;;
14015;SDS011;7083;48.854;9.158;2023-12-22T04:32:20;6.57;;;2.57;;
14015;SDS011;7083;48.854;9.158;2023-12-22T04:34:47;11.67;;;3.17;;
14015;SDS011;7083;48.854;9.158;2023-12-22T04:37:14;10.03;;;2.27;;
14015;SDS011;7083;48.854;9.158;2023-12-22T04:39:42;12.03;;;2.60;;
14015;SDS011;7083;48.854;9.158;2023-12-22T04:42:08;8.98;;;2.42;;
14015;SDS011;7083;48.854;9.158;2023-12-22T04:44:35;6.77;;;2.10;;
14015;SDS011;7083;48.854;9.158;2023-12-22T04:47:02;6.47;;;2.80;;
14015;SDS011;7083;48.854;9.158;2023-12-22T04:49:29;4.80;;;2.20;;
14015;SDS011;7083;48.854;9.158;2023-12-22T04:51:55;11.13;;;2.57;;
14015;SDS011;7083;48.854;9.158;2023-12-22T04:54:22;7.57;;;2.63;;
14015;SDS011;7083;48.854;9.158;2023-12-22T04:56:50;6.90;;;2.00;;
14015;SDS011;7083;48.854;9.158;2023-12-22T04:59:17;5.87;;;2.70;;
14015;SDS011;7083;48.854;9.158;2023-12-22T05:01:43;2.77;;;2.00;;
14015;SDS011;7083;48.854;9.158;2023-12-22T05:04:10;3.20;;;1.97;;
14015;SDS011;7083;48.854;9.158;2023-12-22T05:06:37;4.27;;;1.70;;
14015;SDS011;7083;48.854;9.158;2023-12-22T05:09:04;8.83;;;2.20;;
14015;SDS011;7083;48.854;9.158;2023-12-22T05:11:30;9.57;;;3.20;;
14015;SDS011;7083;48.854;9.158;2023-12-22T05:13:58;5.40;;;2.23;;
14015;SDS011;7083;48.854;9.158;2023-12-22T05:16:25;9.93;;;2.67;;
14015;SDS011;7083;48.854;9.158;2023-12-22T05:18:53;7.63;;;2.83;;
14015;SDS011;7083;48.854;9.158;2023-12-22T05:21:20;8.20;;;2.80;;
14015;SDS011;7083;48.854;9.158;2023-12-22T05:23:46;10.07;;;3.07;;
14015;SDS011;7083;48.854;9.158;2023-12-22T05:26:16;7.53;;;2.27;;
14015;SDS011;7083;48.854;9.158;2023-12-22T05:28:43;7.03;;;3.50;;
14015;SDS011;7083;48.854;9.158;2023-12-22T05:31:11;11.87;;;3.67;;
14015;SDS011;7083;48.854;9.158;2023-12-22T05:33:37;11.13;;;3.27;;
14015;SDS011;7083;48.854;9.158;2023-12-22T05:36:04;10.40;;;3.23;;
14015;SDS011;7083;48.854;9.158;2023-12-22T05:38:32;10.03;;;2.90;;
14015;SDS011;7083;48.854;9.158;2023-12-22T05:41:03;15.40;;;3.20;;
14015;SDS011;7083;48.854;9.158;2023-12-22T05:43:30;13.27;;;3.17;;
14015;SDS011;7083;48.854;9.158;2023-12-22T05:45:56;13.27;;;4.43;;
14015;SDS011;7083;48.854;9.158;2023-12-22T05:48:24;15.83;;;3.37;;
14015;SDS011;7083;48.854;9.158;2023-12-22T05:50:52;14.27;;;3.97;;
14015;SDS011;7083;48.854;9.158;2023-12-22T05:53:19;24.60;;;3.93;;
14015;SDS011;7083;48.854;9.158;2023-12-22T05:55:46;18.17;;;3.40;;
14015;SDS011;7083;48.854;9.158;2023-12-22T05:58:13;9.90;;;3.33;;
14015;SDS011;7083;48.854;9.158;2023-12-22T06:00:40;6.93;;;3.20;;
14015;SDS011;7083;48.854;9.158;2023-12-22T06:03:08;17.23;;;4.50;;
14015;SDS011;7083;48.854;9.158;2023-12-22T06:05:36;16.83;;;4.17;;
14015;SDS011;7083;48.854;9.158;2023-12-22T06:08:03;11.83;;;3.00;;
14015;SDS011;7083;48.854;9.158;2023-12-22T06:10:30;14.17;;;3.73;;
14015;SDS011;7083;48.854;9.158;2023-12-22T06:12:57;15.93;;;4.47;;
14015;SDS011;7083;48.854;9.158;2023-12-22T06:15:26;9.80;;;2.80;;
14015;SDS011;7083;48.854;9.158;2023-12-22T06:17:52;8.00;;;2.17;;
14015;SDS011;7083;48.854;9.158;2023-12-22T06:20:19;7.70;;;2.67;;
14015;SDS011;7083;48.854;9.158;2023-12-22T06:22:47;15.17;;;3.80;;
14015;SDS011;7083;48.854;9.158;2023-12-22T06:25:14;12.47;;;3.13;;
14015;SDS011;7083;48.854;9.158;2023-12-22T06:27:41;8.83;;;2.87;;
14015;SDS011;7083;48.854;9.158;2023-12-22T06:30:08;6.63;;;2.20;;
14015;SDS011;7083;48.854;9.158;2023-12-22T06:32:35;10.00;;;2.63;;
14015;SDS011;7083;48.854;9.158;2023-12-22T06:35:05;8.47;;;2.77;;
14015;SDS011;7083;48.854;9.158;2023-12-22T06:37:32;7.17;;;2.50;;
14015;SDS011;7083;48.854;9.158;2023-12-22T06:40:00;9.73;;;2.63;;
14015;SDS011;7083;48.854;9.158;2023-12-22T06:42:27;6.63;;;2.40;;
14015;SDS011;7083;48.854;9.158;2023-12-22T06:44:54;7.90;;;2.47;;
14015;SDS011;7083;48.854;9.158;2023-12-22T06:47:20;6.77;;;2.57;;
14015;SDS011;7083;48.854;9.158;2023-12-22T06:49:47;7.77;;;2.90;;
14015;SDS011;7083;48.854;9.158;2023-12-22T06:52:14;8.93;;;2.50;;
14015;SDS011;7083;48.854;9.158;2023-12-22T06:54:41;9.53;;;3.23;;
14015;SDS011;7083;48.854;9.158;2023-12-22T06:57:09;5.63;;;2.37;;
14015;SDS011;7083;48.854;9.158;2023-12-22T06:59:38;6.90;;;2.50;;
14015;SDS011;7083;48.854;9.158;2023-12-22T07:02:05;11.20;;;3.27;;
14015;SDS011;7083;48.854;9.158;2023-12-22T07:04:32;5.27;;;2.37;;
14015;SDS011;7083;48.854;9.158;2023-12-22T07:06:58;6.83;;;2.47;;
14015;SDS011;7083;48.854;9.158;2023-12-22T07:09:27;4.87;;;2.10;;
14015;SDS011;7083;48.854;9.158;2023-12-22T07:11:57;5.70;;;2.50;;
14015;SDS011;7083;48.854;9.158;2023-12-22T07:14:25;8.57;;;2.53;;
14015;SDS011;7083;48.854;9.158;2023-12-22T07:16:52;7.07;;;2.40;;
14015;SDS011;7083;48.854;9.158;2023-12-22T07:19:19;6.07;;;2.17;;
14015;SDS011;7083;48.854;9.158;2023-12-22T07:21:46;3.60;;;2.30;;
14015;SDS011;7083;48.854;9.158;2023-12-22T07:24:12;8.50;;;2.70;;
14015;SDS011;7083;48.854;9.158;2023-12-22T07:26:39;7.77;;;2.33;;
14015;SDS011;7083;48.854;9.158;2023-12-22T07:29:06;4.67;;;2.33;;
14015;SDS011;7083;48.854;9.158;2023-12-22T07:31:34;11.97;;;2.80;;
14015;SDS011;7083;48.854;9.158;2023-12-22T07:34:00;8.40;;;2.63;;
14015;SDS011;7083;48.854;9.158;2023-12-22T07:36:27;9.23;;;3.72;;
14015;SDS011;7083;48.854;9.158;2023-12-22T07:38:54;9.90;;;3.10;;
14015;SDS011;7083;48.854;9.158;2023-12-22T07:41:22;7.07;;;2.60;;
14015;SDS011;7083;48.854;9.158;2023-12-22T07:43:48;11.20;;;2.50;;
14015;SDS011;7083;48.854;9.158;2023-12-22T07:46:18;7.80;;;2.80;;
14015;SDS011;7083;48.854;9.158;2023-12-22T07:48:48;7.17;;;2.37;;
14015;SDS011;7083;48.854;9.158;2023-12-22T07:51:15;6.03;;;2.20;;
14015;SDS011;7083;48.854;9.158;2023-12-22T07:53:42;12.27;;;2.33;;
14015;SDS011;7083;48.854;9.158;2023-12-22T07:56:09;4.73;;;1.93;;
14015;SDS011;7083;48.854;9.158;2023-12-22T07:58:36;8.40;;;2.00;;
14015;SDS011;7083;48.854;9.158;2023-12-22T08:01:03;9.70;;;2.57;;
14015;SDS011;7083;48.854;9.158;2023-12-22T08:03:31;6.33;;;3.53;;
14015;SDS011;7083;48.854;9.158;2023-12-22T08:05:59;10.00;;;2.47;;
14015;SDS011;7083;48.854;9.158;2023-12-22T08:08:26;2.77;;;1.60;;
14015;SDS011;7083;48.854;9.158;2023-12-22T08:10:53;5.03;;;2.20;;
14015;SDS011;7083;48.854;9.158;2023-12-22T08:13:19;15.17;;;3.00;;
14015;SDS011;7083;48.854;9.158;2023-12-22T08:15:46;11.93;;;3.08;;
14015;SDS011;7083;48.854;9.158;2023-12-22T08:18:13;8.40;;;3.40;;
14015;SDS011;7083;48.854;9.158;2023-12-22T08:20:39;6.23;;;2.30;;
14015;SDS011;7083;48.854;9.158;2023-12-22T08:23:07;8.73;;;2.67;;
14015;SDS011;7083;48.854;9.158;2023-12-22T08:25:34;12.47;;;3.50;;
14015;SDS011;7083;48.854;9.158;2023-12-22T08:28:01;5.73;;;3.50;;
14015;SDS011;7083;48.854;9.158;2023-12-22T08:30:27;9.60;;;2.97;;
14015;SDS011;7083;48.854;9.158;2023-12-22T08:32:54;6.80;;;2.40;;
14015;SDS011;7083;48.854;9.158;2023-12-22T08:35:21;14.10;;;3.53;;
14015;SDS011;7083;48.854;9.158;2023-12-22T08:37:47;7.47;;;3.60;;
14015;SDS011;7083;48.854;9.158;2023-12-22T08:40:16;9.23;;;4.07;;
14015;SDS011;7083;48.854;9.158;2023-12-22T08:42:42;14.00;;;3.53;;
14015;SDS011;7083;48.854;9.158;2023-12-22T08:45:09;14.77;;;4.00;;
14015;SDS011;7083;48.854;9.158;2023-12-22T08:47:36;12.30;;;3.37;;
14015;SDS011;7083;48.854;9.158;2023-12-22T08:50:02;14.13;;;4.80;;
14015;SDS011;7083;48.854;9.158;2023-12-22T08:52:32;18.37;;;4.93;;
14015;SDS011;7083;48.854;9.158;2023-12-22T08:55:00;17.90;;;4.20;;
14015;SDS011;7083;48.854;9.158;2023-12-22T08:57:28;13.47;;;4.07;;
14015;SDS011;7083;48.854;9.158;2023-12-22T08:59:54;18.20;;;4.27;;
14015;SDS011;7083;48.854;9.158;2023-12-22T09:02:21;12.07;;;3.23;;
14015;SDS011;7083;48.854;9.158;2023-12-22T09:04:48;18.70;;;3.90;;
14015;SDS011;7083;48.854;9.158;2023-12-22T09:07:16;17.13;;;3.80;;
14015;SDS011;7083;48.854;9.158;2023-12-22T09:09:42;23.23;;;5.27;;
14015;SDS011;7083;48.854;9.158;2023-12-22T09:12:09;16.83;;;3.57;;
14015;SDS011;7083;48.854;9.158;2023-12-22T09:14:37;16.43;;;4.47;;
14015;SDS011;7083;48.854;9.158;2023-12-22T09:17:03;20.47;;;4.57;;
14015;SDS011;7083;48.854;9.158;2023-12-22T09:19:31;16.13;;;3.23;;
14015;SDS011;7083;48.854;9.158;2023-12-22T09:21:58;16.17;;;4.20;;
14015;SDS011;7083;48.854;9.158;2023-12-22T09:24:25;23.07;;;5.77;;
14015;SDS011;7083;48.854;9.158;2023-12-22T09:26:51;9.53;;;3.03;;
14015;SDS011;7083;48.854;9.158;2023-12-22T09:29:18;8.37;;;3.07;;
14015;SDS011;7083;48.854;9.158;2023-12-22T09:31:47;12.80;;;3.63;;
14015;SDS011;7083;48.854;9.158;2023-12-22T09:34:15;10.90;;;3.40;;
14015;SDS011;7083;48.854;9.158;2023-12-22T09:36:41;13.60;;;4.87;;
14015;SDS011;7083;48.854;9.158;2023-12-22T09:39:08;16.53;;;5.03;;
14015;SDS011;7083;48.854;9.158;2023-12-22T09:41:35;14.07;;;3.03;;
14015;SDS011;7083;48.854;9.158;2023-12-22T09:44:01;10.10;;;3.67;;
14015;SDS011;7083;48.854;9.158;2023-12-22T09:46:30;21.13;;;4.53;;
14015;SDS011;7083;48.854;9.158;2023-12-22T09:48:58;13.30;;;3.37;;
14015;SDS011;7083;48.854;9.158;2023-12-22T09:51:26;23.40;;;3.63;;
14015;SDS011;7083;48.854;9.158;2023-12-22T09:53:53;15.77;;;4.13;;
14015;SDS011;7083;48.854;9.158;2023-12-22T09:56:23;17.20;;;3.87;;
14015;SDS011;7083;48.854;9.158;2023-12-22T09:58:51;18.77;;;4.20;;
14015;SDS011;7083;48.854;9.158;2023-12-22T10:01:19;14.33;;;3.63;;
14015;SDS011;7083;48.854;9.158;2023-12-22T10:03:48;12.67;;;3.37;;
14015;SDS011;7083;48.854;9.158;2023-12-22T10:06:16;11.77;;;3.37;;
14015;SDS011;7083;48.854;9.158;2023-12-22T10:08:43;12.57;;;3.60;;
14015;SDS011;7083;48.854;9.158;2023-12-22T10:11:10;24.20;;;4.40;;
14015;SDS011;7083;48.854;9.158;2023-12-22T10:13:37;11.97;;;3.60;;
14015;SDS011;7083;48.854;9.158;2023-12-22T10:16:06;13.33;;;3.53;;
14015;SDS011;7083;48.854;9.158;2023-12-22T10:18:33;17.03;;;3.10;;
14015;SDS011;7083;48.854;9.158;2023-12-22T10:21:00;10.13;;;4.07;;
14015;SDS011;7083;48.854;9.158;2023-12-22T10:23:28;14.63;;;3.77;;
14015;SDS011;7083;48.854;9.158;2023-12-22T10:25:56;10.80;;;4.20;;
14015;SDS011;7083;48.854;9.158;2023-12-22T10:28:24;8.77;;;3.27;;
14015;SDS011;7083;48.854;9.158;2023-12-22T10:30:53;11.23;;;3.57;;
14015;SDS011;7083;48.854;9.158;2023-12-22T10:33:22;15.10;;;3.50;;
14015;SDS011;7083;48.854;9.158;2023-12-22T10:35:49;11.43;;;3.77;;
14015;SDS011;7083;48.854;9.158;2023-12-22T10:38:21;13.87;;;4.60;;
14015;SDS011;7083;48.854;9.158;2023-12-22T10:40:49;10.67;;;3.57;;
14015;SDS011;7083;48.854;9.158;2023-12-22T10:43:16;18.17;;;3.40;;
14015;SDS011;7083;48.854;9.158;2023-12-22T10:45:46;15.00;;;4.17;;
14015;SDS011;7083;48.854;9.158;2023-12-22T10:48:13;10.00;;;3.67;;
14015;SDS011;7083;48.854;9.158;2023-12-22T10:50:43;12.93;;;3.33;;
14015;SDS011;7083;48.854;9.158;2023-12-22T10:53:17;12.43;;;3.27;;
14015;SDS011;7083;48.854;9.158;2023-12-22T10:55:51;4.90;;;2.17;;
14015;SDS011;7083;48.854;9.158;2023-12-22T10:58:23;6.27;;;2.60;;
14015;SDS011;7083;48.854;9.158;2023-12-22T11:00:50;9.97;;;2.77;;
14015;SDS011;7083;48.854;9.158;2023-12-22T11:03:24;8.50;;;2.67;;
14015;SDS011;7083;48.854;9.158;2023-12-22T11:05:57;3.60;;;1.93;;
14015;SDS011;7083;48.854;9.158;2023-12-22T11:08:30;4.83;;;2.27;;
14015;SDS011;7083;48.854;9.158;2023-12-22T11:11:12;6.47;;;2.87;;
14015;SDS011;7083;48.854;9.158;2023-12-22T11:13:47;10.47;;;2.43;;
14015;SDS011;7083;48.854;9.158;2023-12-22T11:16:24;5.67;;;2.03;;
14015;SDS011;7083;48.854;9.158;2023-12-22T11:19:18;7.10;;;2.37;;
14015;SDS011;7083;48.854;9.158;2023-12-22T11:21:56;4.87;;;2.07;;
14015;SDS011;7083;48.854;9.158;2023-12-22T11:24:37;3.20;;;2.03;;
14015;SDS011;7083;48.854;9.158;2023-12-22T11:27:11;5.43;;;1.87;;
14015;SDS011;7083;48.854;9.158;2023-12-22T11:29:50;4.23;;;2.27;;
14015;SDS011;7083;48.854;9.158;2023-12-22T11:32:34;4.10;;;2.07;;
14015;SDS011;7083;48.854;9.158;2023-12-22T11:35:08;2.77;;;1.73;;
14015;SDS011;7083;48.854;9.158;2023-12-22T11:37:35;7.00;;;1.97;;
14015;SDS011;7083;48.854;9.158;2023-12-22T11:40:07;7.00;;;2.17;;
14015;SDS011;7083;48.854;9.158;2023-12-22T11:42:54;4.93;;;1.70;;
14015;SDS011;7083;48.854;9.158;2023-12-22T11:45:26;3.50;;;1.80;;
14015;SDS011;7083;48.854;9.158;2023-12-22T11:47:56;3.20;;;1.50;;
14015;SDS011;7083;48.854;9.158;2023-12-22T11:50:32;6.03;;;2.37;;
14015;SDS011;7083;48.854;9.158;2023-12-22T11:55:56;3.00;;;1.63;;
14015;SDS011;7083;48.854;9.158;2023-12-22T11:58:35;5.47;;;1.77;;
14015;SDS011;7083;48.854;9.158;2023-12-22T12:01:03;2.50;;;1.20;;
14015;SDS011;7083;48.854;9.158;2023-12-22T12:03:33;3.20;;;1.53;;
14015;SDS011;7083;48.854;9.158;2023-12-22T12:06:16;2.07;;;1.50;;
14015;SDS011;7083;48.854;9.158;2023-12-22T12:08:48;3.63;;;1.83;;
14015;SDS011;7083;48.854;9.158;2023-12-22T12:11:16;2.67;;;1.30;;
14015;SDS011;7083;48.854;9.158;2023-12-22T12:13:44;5.03;;;2.73;;
14015;SDS011;7083;48.854;9.158;2023-12-22T12:16:11;2.93;;;2.00;;
14015;SDS011;7083;48.854;9.158;2023-12-22T12:18:39;2.27;;;1.20;;
14015;SDS011;7083;48.854;9.158;2023-12-22T12:21:07;3.80;;;2.17;;
14015;SDS011;7083;48.854;9.158;2023-12-22T12:23:34;1.77;;;1.10;;
14015;SDS011;7083;48.854;9.158;2023-12-22T12:26:01;1.40;;;1.30;;
14015;SDS011;7083;48.854;9.158;2023-12-22T12:28:29;2.27;;;1.90;;
14015;SDS011;7083;48.854;9.158;2023-12-22T12:30:59;1.70;;;1.60;;
14015;SDS011;7083;48.854;9.158;2023-12-22T12:33:27;1.87;;;1.77;;
14015;SDS011;7083;48.854;9.158;2023-12-22T12:35:55;5.27;;;1.40;;
14015;SDS011;7083;48.854;9.158;2023-12-22T12:38:25;2.00;;;1.40;;
14015;SDS011;7083;48.854;9.158;2023-12-22T12:41:09;2.87;;;1.43;;
14015;SDS011;7083;48.854;9.158;2023-12-22T12:43:36;2.57;;;1.50;;
14015;SDS011;7083;48.854;9.158;2023-12-22T12:46:10;1.80;;;1.70;;
14015;SDS011;7083;48.854;9.158;2023-12-22T12:48:36;1.57;;;1.30;;
14015;SDS011;7083;48.854;9.158;2023-12-22T12:51:03;2.23;;;1.10;;
14015;SDS011;7083;48.854;9.158;2023-12-22T12:53:31;0.90;;;0.90;;
14015;SDS011;7083;48.854;9.158;2023-12-22T12:55:58;2.00;;;1.20;;
14015;SDS011;7083;48.854;9.158;2023-12-22T12:58:27;2.67;;;1.50;;
14015;SDS011;7083;48.854;9.158;2023-12-22T13:01:03;3.57;;;2.40;;
14015;SDS011;7083;48.854;9.158;2023-12-22T13:03:32;1.90;;;1.27;;
14015;SDS011;7083;48.854;9.158;2023-12-22T13:06:05;1.13;;;1.13;;
14015;SDS011;7083;48.854;9.158;2023-12-22T13:08:33;0.83;;;0.83;;
14015;SDS011;7083;48.854;9.158;2023-12-22T13:11:00;1.20;;;1.10;;
14015;SDS011;7083;48.854;9.158;2023-12-22T13:13:27;0.83;;;0.60;;
14015;SDS011;7083;48.854;9.158;2023-12-22T13:15:54;0.80;;;0.80;;
14015;SDS011;7083;48.854;9.158;2023-12-22T13:18:21;1.60;;;0.93;;
14015;SDS011;7083;48.854;9.158;2023-12-22T13:20:49;0.70;;;0.70;;
14015;SDS011;7083;48.854;9.158;2023-12-22T13:23:17;1.77;;;0.77;;
14015;SDS011;7083;48.854;9.158;2023-12-22T13:25:44;1.03;;;0.70;;
14015;SDS011;7083;48.854;9.158;2023-12-22T13:28:11;0.97;;;0.83;;
14015;SDS011;7083;48.854;9.158;2023-12-22T13:30:38;0.63;;;0.63;;
14015;SDS011;7083;48.854;9.158;2023-12-22T13:33:06;1.13;;;1.00;;
14015;SDS011;7083;48.854;9.158;2023-12-22T13:35:33;0.67;;;0.63;;
14015;SDS011;7083;48.854;9.158;2023-12-22T13:38:02;0.80;;;0.80;;
14015;SDS011;7083;48.854;9.158;2023-12-22T13:40:31;1.40;;;0.80;;
14015;SDS011;7083;48.854;9.158;2023-12-22T13:42:58;2.17;;;1.20;;
14015;SDS011;7083;48.854;9.158;2023-12-22T13:45:26;0.70;;;0.70;;
14015;SDS011;7083;48.854;9.158;2023-12-22T13:47:54;0.80;;;0.80;;
14015;SDS011;7083;48.854;9.158;2023-12-22T13:50:21;0.70;;;0.70;;
14015;SDS011;7083;48.854;9.158;2023-12-22T13:52:48;0.60;;;0.60;;
14015;SDS011;7083;48.854;9.158;2023-12-22T13:55:18;0.67;;;0.67;;
14015;SDS011;7083;48.854;9.158;2023-12-22T13:57:47;0.83;;;0.83;;
14015;SDS011;7083;48.854;9.158;2023-12-22T14:00:26;0.70;;;0.70;;
14015;SDS011;7083;48.854;9.158;2023-12-22T14:02:54;1.40;;;1.30;;
14015;SDS011;7083;48.854;9.158;2023-12-22T14:05:21;1.23;;;0.93;;
14015;SDS011;7083;48.854;9.158;2023-12-22T14:07:48;1.53;;;1.43;;
14015;SDS011;7083;48.854;9.158;2023-12-22T14:10:15;1.30;;;1.07;;
14015;SDS011;7083;48.854;9.158;2023-12-22T14:12:43;1.00;;;0.90;;
14015;SDS011;7083;48.854;9.158;2023-12-22T14:15:10;1.10;;;1.10;;
14015;SDS011;7083;48.854;9.158;2023-12-22T14:17:42;0.80;;;0.80;;
14015;SDS011;7083;48.854;9.158;2023-12-22T14:20:09;0.90;;;0.90;;
14015;SDS011;7083;48.854;9.158;2023-12-22T14:22:42;0.90;;;0.90;;
14015;SDS011;7083;48.854;9.158;2023-12-22T14:25:12;1.20;;;1.20;;
14015;SDS011;7083;48.854;9.158;2023-12-22T14:27:40;0.93;;;0.93;;
14015;SDS011;7083;48.854;9.158;2023-12-22T14:30:08;0.73;;;0.73;;
14015;SDS011;7083;48.854;9.158;2023-12-22T14:32:35;0.90;;;0.90;;
14015;SDS011;7083;48.854;9.158;2023-12-22T14:35:02;1.03;;;0.80;;
14015;SDS011;7083;48.854;9.158;2023-12-22T14:37:37;0.80;;;0.80;;
14015;SDS011;7083;48.854;9.158;2023-12-22T14:40:05;0.90;;;0.90;;
14015;SDS011;7083;48.854;9.158;2023-12-22T14:42:47;0.73;;;0.73;;
14015;SDS011;7083;48.854;9.158;2023-12-22T14:45:27;0.70;;;0.70;;
14015;SDS011;7083;48.854;9.158;2023-12-22T14:48:05;0.90;;;0.90;;
14015;SDS011;7083;48.854;9.158;2023-12-22T14:50:36;0.60;;;0.60;;
14015;SDS011;7083;48.854;9.158;2023-12-22T14:53:19;0.87;;;0.87;;
14015;SDS011;7083;48.854;9.158;2023-12-22T14:55:48;0.70;;;0.70;;
14015;SDS011;7083;48.854;9.158;2023-12-22T14:58:24;1.70;;;0.80;;
14015;SDS011;7083;48.854;9.158;2023-12-22T15:01:00;0.90;;;0.90;;
14015;SDS011;7083;48.854;9.158;2023-12-22T15:03:28;1.00;;;1.00;;
14015;SDS011;7083;48.854;9.158;2023-12-22T15:05:57;0.77;;;0.77;;
14015;SDS011;7083;48.854;9.158;2023-12-22T15:08:31;1.47;;;0.90;;